Gilze Rijen Air Base

EHGR · Brabante Septentrional, Países Bajos

METAR pasados EHGR · Gilze Rijen Air Base

A continuación puedes ver los METAR de los últimos días. Selecciona un año para ver los METAR más antiguos, desde el año 2007 en adelante.

19 de abril de 2024

Hora Código Tiempo Temp. Visibilidad Cielo nuboso Viento METAR/SPECI
17:55
V
10 °C 10 km+ 3.500 ft 310° 310° 17 kt METAR EHGR 191555Z AUTO 31017KT 280V350 9999 SCT030 BKN035 BKN040 10/03 Q1011 BLU
17:25
M
11 °C 10 km+ 3.000 ft 320° 320° 15 - 26 kt METAR EHGR 191525Z AUTO 32015G26KT 280V020 9999 BKN030 OVC037 11/04 Q1011 BLU
16:55
V
10 °C 10 km+ 3.200 ft 310° 310° 17 - 29 kt METAR EHGR 191455Z AUTO 31017G29KT 280V030 9999 SCT029 BKN032 10/05 Q1011 BLU
16:39
V
10 °C 10 km+ 4.500 ft 320° 320° 17 kt METAR EHGR 191439Z AUTO 32017KT 270V040 9999 -RA FEW031 SCT041 BKN045 10/06 Q1011 BLU
16:25
V
9 °C 10 km+ 4.000 ft 320° 320° 16 - 27 kt METAR EHGR 191425Z AUTO 32016G27KT 270V010 9999 FEW025 SCT034 BKN040 09/05 Q1011 RERA BLU
16:17
M
7 °C 6 km 2.600 ft 320° 320° 22 - 35 kt METAR EHGR 191417Z AUTO 32022G35KT 280V050 6000 SHRA FEW018 BKN026 OVC030 07/04 Q1011 WHT
16:09
M
9 °C 10 km+ 2.700 ft 320° 320° 17 - 35 kt METAR EHGR 191409Z AUTO 32017G35KT 280V030 9999 RA BKN027 BKN033 OVC039 09/04 Q1010 BLU
15:55
V
10 °C 10 km+ 5.000 ft 320° 320° 17 kt METAR EHGR 191355Z AUTO 32017KT 270V360 9999 FEW028 SCT033 BKN050 10/04 Q1010 REDZ BLU
15:42
V
10 °C 10 km+ 3.600 ft 320° 320° 20 - 33 kt METAR EHGR 191342Z AUTO 32020G33KT 280V020 9999 DZRA SCT029 BKN036 OVC041 10/04 Q1010 BLU
15:31
M
12 °C 10 km+ 3.000 ft 320° 320° 17 - 29 kt METAR EHGR 191331Z AUTO 32017G29KT 270V030 9999 FEW026 BKN030 BKN038 12/05 Q1009 BLU
15:25
M
11 °C 10 km+ 2.800 ft 330° 330° 15 - 29 kt METAR EHGR 191325Z AUTO 33015G29KT 270V040 9999 SCT025 OVC028 11/06 Q1009 BLU TEMPO 32020G35KT 4000 SHRA FEW010 SCT015CB
15:10
M
12 °C 10 km+ 2.900 ft 300° 300° 18 kt METAR EHGR 191310Z AUTO 30018KT 260V020 9999 SCT025 BKN029 OVC033 12/06 Q1009 BLU TEMPO 32020G35KT 4000 SHRA FEW010 SCT015CB
14:55
V
11 °C 10 km+ 12.000 ft 310° 310° 18 - 33 kt METAR EHGR 191255Z AUTO 31018G33KT 260V360 9999 FEW071 SCT076 OVC120 11/06 Q1009 BLU TEMPO 32020G35KT 4000 SHRA FEW010 SCT015CB
14:40
M
11 °C 10 km+ 3.000 ft 310° 310° 19 - 29 kt METAR EHGR 191240Z AUTO 31019G29KT 270V010 9999 RA FEW022 SCT027 BKN030 11/07 Q1009 BLU TEMPO 32020G35KT 4000 SHRA FEW010 SCT015CB
14:36
M
10 °C 6 km 2.800 ft 310° 310° 20 - 31 kt METAR EHGR 191236Z AUTO 31020G31KT 270V010 6000 -RA SCT023 BKN028 BKN033 10/06 Q1009 WHT TEMPO 32020G35KT 4000 SHRA FEW010 SCT015CB
14:30
M
11 °C 10 km+ 2.300 ft 310° 310° 20 - 32 kt METAR EHGR 191230Z AUTO 31020G32KT 260V010 9999 BKN023 BKN029 OVC033 11/06 Q1009 WHT TEMPO 32020G35KT 4000 SHRA FEW010 SCT015CB
14:25
M
12 °C 10 km+ 2.300 ft 300° 300° 21 - 32 kt METAR EHGR 191225Z AUTO 30021G32KT 250V350 9999 BKN023 BKN027 BKN037 12/07 Q1009 WHT TEMPO 32020G30KT 4000 SHRA FEW010 SCT015CB
14:10
V
12 °C 10 km+ 8.300 ft 300° 300° 20 kt METAR EHGR 191210Z AUTO 30020KT 270V340 9999 FEW022 SCT029 OVC083 12/07 Q1009 BLU TEMPO 32020G30KT 4000 SHRA FEW010 SCT015CB
13:59
M
11 °C 10 km+ 2.200 ft 300° 300° 21 - 32 kt METAR EHGR 191159Z AUTO 30021G32KT 250V340 9999 RA BKN022 BKN027 OVC031 11/07 Q1009 WHT TEMPO 32020G30KT 4000 SHRA FEW010 SCT015CB
13:55
M
12 °C 10 km+ 2.700 ft 300° 300° 21 kt METAR EHGR 191155Z AUTO 30021KT 250V330 9999 SCT022 BKN027 BKN038 12/07 Q1009 WHT TEMPO 32020G30KT 4000 SHRA FEW010 SCT015CB
13:37
V
11 °C 10 km+ 7.500 ft 300° 300° 18 kt METAR EHGR 191137Z AUTO 30018KT 260V360 9999 SCT021 SCT032 BKN075 11/07 Q1009 WHT TEMPO 32020G30KT 4000 SHRA FEW010 SCT015CB
13:25
V
11 °C 10 km+ 6.700 ft 300° 300° 18 - 29 kt METAR EHGR 191125Z AUTO 30018G29KT 260V330 9999 FEW018 SCT051 BKN067 11/08 Q1009 BLU TEMPO 32020G30KT 4000 SHRA FEW010 SCT015CB
13:16
V
10 °C 10 km+ 4.100 ft 300° 300° 18 - 28 kt METAR EHGR 191116Z AUTO 30018G28KT 270V340 9999 -RA FEW017 SCT027 BKN041 10/07 Q1009 BLU TEMPO 32020G30KT 4000 SHRA FEW010 SCT015CB
13:11
M
11 °C 5 km 2.400 ft 310° 310° 18 - 28 kt METAR EHGR 191111Z AUTO 31018G28KT 270V350 5000 -RA FEW017 SCT021 BKN024 11/07 Q1009 WHT TEMPO 32020G30KT 4000 SHRA FEW010 SCT015CB
13:03
V
11 °C 10 km+ 3.100 ft 310° 310° 19 kt METAR EHGR 191103Z AUTO 31019KT 260V340 9999 FEW020 SCT024 BKN031 11/07 Q1008 WHT TEMPO 32020G30KT 4000 SHRA FEW010 SCT015CB
12:59
V
11 °C 10 km+ 5.000 ft 310° 310° 19 - 29 kt METAR EHGR 191059Z AUTO 31019G29KT 260V340 9999 FEW021 SCT034 BKN050 11/07 Q1008 BLU TEMPO 32020G30KT 4000 SHRA FEW010 SCT015CB
12:25
V
11 °C 10 km+ 6.400 ft 300° 300° 16 kt METAR EHGR 191025Z AUTO 30016KT 260V340 9999 FEW013 SCT016 BKN064 11/09 Q1008 WHT TEMPO 32020G30KT 4000 SHRA FEW010 SCT015CB
12:10
M
11 °C 10 km+ 1.600 ft 290° 290° 18 kt METAR EHGR 191010Z AUTO 29018KT 250V330 9999 -RA SCT013 BKN016 BKN029 11/09 Q1008 GRN TEMPO 32020G30KT 4000 SHRA FEW010 SCT015CB
12:03
V
11 °C 10 km+ 5.300 ft 290° 290° 18 kt METAR EHGR 191003Z AUTO 29018KT 250V330 9999 FEW013 SCT017 BKN053 11/09 Q1008 WHT TEMPO 32020G30KT 4000 SHRA FEW010 SCT015CB
11:55
V
10 °C 10 km+ 4.900 ft 300° 300° 15 kt METAR EHGR 190955Z AUTO 30015KT 250V320 9999 FEW032 BKN049 BKN055 10/09 Q1009 BLU TEMPO 32020G30KT 4000 SHRA FEW010 SCT015CB
11:39
M
9 °C 7 km 1.600 ft 290° 290° 18 kt METAR EHGR 190939Z AUTO 29018KT 240V320 7000 SHRA FEW014 BKN016 BKN023 09/08 Q1009 WHT TEMPO 32020G30KT 4000 SHRA FEW010 SCT015CB
11:38
M
10 °C 5 km 1.600 ft 290° 290° 17 - 27 kt METAR EHGR 190938Z AUTO 29017G27KT 270V340 5000 -RA FEW014 BKN016 BKN019 10/08 Q1009 WHT TEMPO 32020G30KT 4000 SHRA FEW010 SCT015CB
11:30
V
10 °C 10 km+ 4.700 ft 290° 290° 16 kt METAR EHGR 190930Z AUTO 29016KT 250V340 9999 FEW016 SCT021 BKN047 10/08 Q1009 WHT TEMPO 32013G23KT 4000 SHRA FEW010 SCT015CB
11:25
V
10 °C 10 km+ 5.300 ft 290° 290° 15 kt METAR EHGR 190925Z AUTO 29015KT 260V320 9999 -DZ FEW038 SCT046 BKN053 10/07 Q1009 REDZ BLU TEMPO 32013G23KT 4000 SHRA FEW010 SCT015CB
11:13
V
9 °C 10 km+ 5.400 ft 290° 290° 20 kt METAR EHGR 190913Z AUTO 29020KT 260V320 9999 -SHRA FEW017 SCT049 BKN054 09/07 Q1009 BLU TEMPO 32013G23KT 4000 SHRA FEW010 SCT015CB
11:05
V
10 °C 10 km+ 5.600 ft 290° 290° 19 kt METAR EHGR 190905Z AUTO 29019KT 250V320 9999 DZRA FEW016 SCT021 BKN056 10/08 Q1009 WHT TEMPO 32013G23KT 4000 SHRA FEW010 SCT015CB
10:55
V
11 °C 10 km+ 4.200 ft 280° 280° 17 kt METAR EHGR 190855Z AUTO 28017KT 250V310 9999 -DZ FEW016 SCT024 BKN042 11/09 Q1009 REDZ WHT TEMPO 32013G23KT 4000 SHRA FEW010 SCT015CB
10:41
V
10 °C 10 km+ 3.100 ft 270° 270° 17 - 27 kt METAR EHGR 190841Z AUTO 27017G27KT 250V310 9999 -RA FEW016 SCT027 BKN031 10/08 Q1008 BLU TEMPO 32013G23KT 4000 SHRA FEW010 SCT015CB
10:36
M
10 °C 9 km 2.700 ft 280° 280° 18 kt METAR EHGR 190836Z AUTO 28018KT 9000 SHRA +DZ FEW016 SCT019 BKN027 10/08 Q1008 WHT TEMPO 32013G23KT 4000 SHRA FEW010 SCT015CB
10:35
M
10 °C 7 km 2.400 ft 280° 280° 16 kt METAR EHGR 190835Z AUTO 28016KT 250V330 7000 +DZ SCT016 SCT019 BKN024 10/08 Q1008 WHT TEMPO 32013G23KT 4000 SHRA FEW010 SCT015CB
10:25
V
11 °C 10 km+ 3.100 ft 280° 280° 18 kt METAR EHGR 190825Z AUTO 28018KT 250V330 9999 SCT016 SCT025 BKN031 11/08 Q1008 WHT TEMPO 32013G23KT 4000 SHRA FEW010 SCT015CB
10:05
M
11 °C 10 km+ 2.100 ft 280° 280° 15 kt METAR EHGR 190805Z AUTO 28015KT 9999 -RA FEW014 SCT017 BKN021 11/08 Q1009 WHT TEMPO 32013G23KT 4000 SHRA FEW010 SCT015CB
09:55
M
10 °C 10 km+ 1.600 ft 280° 280° 14 kt METAR EHGR 190755Z AUTO 28014KT 250V310 9999 SCT014 BKN016 OVC021 10/08 Q1009 GRN TEMPO 32013G23KT 4000 SHRA FEW010 SCT015CB
09:36
M
10 °C 10 km+ 1.500 ft 280° 280° 13 - 24 kt METAR EHGR 190736Z AUTO 28013G24KT 240V310 9999 FEW013 BKN015 OVC021 10/09 Q1009 WHT TEMPO 32013G23KT 4000 SHRA FEW010 SCT015CB
09:25
M
10 °C 10 km+ 1.400 ft 280° 280° 13 kt METAR EHGR 190725Z AUTO 28013KT 250V320 9999 -RA SCT012 BKN014 OVC016 10/08 Q1009 RERA REDZ GRN TEMPO 32013G23KT 4000 SHRA FEW010 SCT015CB
09:10
M
10 °C 10 km+ 1.300 ft 280° 280° 14 kt METAR EHGR 190710Z AUTO 28014KT 9999 +DZ FEW011 BKN013 OVC016 10/08 Q1009 GRN TEMPO 32013G23KT 4000 SHRA FEW010 SCT015CB
09:06
M
10 °C 10 km+ 1.500 ft 270° 270° 13 kt METAR EHGR 190706Z AUTO 27013KT 9999 DZ FEW011 BKN015 OVC018 10/08 Q1009 WHT TEMPO 32013G23KT 4000 SHRA FEW010 SCT015CB
09:00
M
10 °C 10 km+ 1.300 ft 270° 270° 11 kt METAR EHGR 190700Z AUTO 27011KT 250V310 9999 DZRA SCT011 BKN013 OVC016 10/08 Q1009 GRN TEMPO 32013G23KT 4000 SHRA FEW010 SCT015CB
08:55
M
10 °C 10 km+ 1.400 ft 270° 270° 11 kt METAR EHGR 190655Z AUTO 27011KT 250V310 9999 -RA SCT011 BKN014 OVC017 10/08 Q1009 GRN TEMPO 32013G23KT 4000 SHRA FEW010 SCT015CB
08:35
M
10 °C 10 km+ 1.400 ft 270° 270° 10 kt METAR EHGR 190635Z AUTO 27010KT 9999 FEW011 BKN014 BKN017 10/09 Q1009 GRN TEMPO 32013G23KT 4000 SHRA FEW010 SCT015CB
08:31
M
10 °C 10 km+ 1.500 ft 270° 270° 10 kt METAR EHGR 190631Z AUTO 27010KT 9999 FEW011 BKN015 OVC019 10/09 Q1009 WHT
08:25
M
10 °C 10 km+ 1.400 ft 270° 270° 10 kt METAR EHGR 190625Z AUTO 27010KT 9999 FEW010 SCT012 BKN014 10/09 Q1009 GRN
08:05
M
9 °C 10 km+ 1.000 ft 270° 270° 10 kt METAR EHGR 190605Z AUTO 27010KT 240V300 9999 -RA FEW009 BKN010 BKN013 09/09 Q1009 GRN
07:55
M
9 °C 8 km 1.200 ft 260° 260° 8 kt METAR EHGR 190555Z AUTO 26008KT 230V290 8000 RA FEW008 SCT009 BKN012 09/09 Q1009 RERA REDZ GRN
07:41
I
9 °C 10 km+ 900 ft 250° 250° 6 kt METAR EHGR 190541Z AUTO 25006KT 220V280 9999 DZRA FEW005 SCT008 BKN009 09/08 Q1009 GRN
07:25
I
8 °C 10 km+ 900 ft 240° 240° 7 kt METAR EHGR 190525Z AUTO 24007KT 220V280 9999 FEW005 SCT008 BKN009 08/08 Q1009 REDZ GRN
07:09
I
8 °C 10 km+ 600 ft 240° 240° 8 kt METAR EHGR 190509Z AUTO 24008KT 210V270 9999 FEW004 SCT005 BKN006 08/07 Q1010 YLO
07:18
I
8 °C 10 km+ 800 ft 240° 240° 8 kt METAR EHGR 190518Z AUTO 24008KT 220V280 9999 FEW004 BKN008 BKN009 08/08 Q1010 GRN
06:55
L
8 °C 2,7 km 400 ft 240° 240° 10 kt METAR EHGR 190455Z AUTO 24010KT 200V270 2700 +DZ FEW003 BKN004 OVC005 08/07 Q1010 YLO
06:25
I
7 °C 2,5 km 500 ft 240° 240° 9 kt METAR EHGR 190425Z AUTO 24009KT 210V270 2500 +DZ SCT004 BKN005 OVC006 07/07 Q1010 YLO
06:16
I
7 °C 2,8 km 500 ft 240° 240° 9 kt METAR EHGR 190416Z AUTO 24009KT 210V270 2800 +DZ SCT004 OVC005 07/07 Q1010 YLO
06:10
I
7 °C 3,1 km 500 ft 240° 240° 9 kt METAR EHGR 190410Z AUTO 24009KT 210V270 3100 +DZRA FEW004 BKN005 OVC006 07/07 Q1010 YLO
06:03
I
7 °C 3,3 km 600 ft 240° 240° 10 kt METAR EHGR 190403Z AUTO 24010KT 210V270 3300 +DZ FEW004 BKN006 BKN007 07/07 Q1010 YLO NOSIG
05:55
I
7 °C 4,1 km 600 ft 240° 240° 10 kt METAR EHGR 190355Z AUTO 24010KT 220V290 4100 +DZ SCT005 BKN006 OVC007 07/07 Q1010 YLO NOSIG
05:40
I
7 °C 6 km 600 ft 240° 240° 11 kt METAR EHGR 190340Z AUTO 24011KT 200V270 6000 -RA SCT005 BKN006 BKN009 FEW015CB 07/07 Q1011 YLO NOSIG
05:30
I
7 °C 4,2 km 700 ft 240° 240° 10 kt METAR EHGR 190330Z AUTO 24010KT 200V270 4200 -SHRA SCT005 BKN007 OVC008 07/06 Q1011 YLO NOSIG
05:25
I
7 °C 3,9 km 700 ft 240° 240° 10 kt METAR EHGR 190325Z AUTO 24010KT 210V270 3900 -RA SCT005 BKN007 OVC008 07/06 Q1011 YLO NOSIG
05:17
I
7 °C 4,2 km 700 ft 240° 240° 10 kt METAR EHGR 190317Z AUTO 24010KT 210V270 4200 -SHRA FEW006 BKN007 BKN008 FEW015CB 07/06 Q1011 GRN NOSIG
05:11
I
7 °C 3,3 km 800 ft 240° 240° 11 kt METAR EHGR 190311Z AUTO 24011KT 210V280 3300 -RA FEW007 BKN008 BKN009 FEW015CB 07/06 Q1011 YLO NOSIG
05:05
I
7 °C 3,7 km 800 ft 240° 240° 11 kt METAR EHGR 190305Z AUTO 24011KT 210V280 3700 -RA SCT007 BKN008 BKN010 FEW015CB 07/06 Q1011 GRN NOSIG
04:55
M
7 °C 6 km 1.000 ft 230° 230° 10 kt METAR EHGR 190255Z AUTO 23010KT 190V280 6000 -RADZ FEW008 SCT009 BKN010 FEW015CB 07/06 Q1012 GRN NOSIG
04:44
I
7 °C 8 km 900 ft 230° 230° 8 kt METAR EHGR 190244Z AUTO 23008KT 200V260 8000 +DZRA SCT008 BKN009 OVC010 07/06 Q1012 GRN NOSIG
04:39
M
7 °C 8 km 1.000 ft 240° 240° 9 kt METAR EHGR 190239Z AUTO 24009KT 210V270 8000 +DZ FEW008 SCT009 OVC010 07/06 Q1012 GRN NOSIG
04:25
M
7 °C 7 km 1.300 ft 230° 230° 10 kt METAR EHGR 190225Z AUTO 23010KT 200V270 7000 +DZ FEW009 SCT010 BKN013 07/06 Q1012 GRN NOSIG
04:10
M
7 °C 7 km 1.200 ft 230° 230° 8 - 18 kt METAR EHGR 190210Z AUTO 23008G18KT 200V270 7000 +DZ FEW010 BKN012 OVC015 07/06 Q1012 GRN NOSIG
03:55
M
7 °C 10 km+ 1.600 ft 240° 240° 11 kt METAR EHGR 190155Z AUTO 24011KT 200V270 9999 DZ FEW011 SCT013 OVC016 07/06 Q1013 GRN NOSIG
03:39
M
7 °C 10 km+ 1.600 ft 240° 240° 9 kt METAR EHGR 190139Z AUTO 24009KT 200V270 9999 DZRA FEW014 BKN016 OVC022 07/06 Q1013 WHT NOSIG
03:29
M
7 °C 10 km+ 2.300 ft 230° 230° 8 kt METAR EHGR 190129Z AUTO 23008KT 210V280 9999 -RA FEW008 SCT016 BKN023 07/06 Q1013 WHT NOSIG
03:25
M
7 °C 10 km+ 1.600 ft 230° 230° 7 kt METAR EHGR 190125Z AUTO 23007KT 210V270 9999 -RA FEW008 SCT011 BKN016 07/06 Q1013 RERA REDZ GRN NOSIG
03:07
M
7 °C 9 km 1.700 ft 240° 240° 8 kt METAR EHGR 190107Z AUTO 24008KT 200V270 9000 -SHRA FEW010 SCT013 BKN017 07/06 Q1014 GRN NOSIG
03:00
M
7 °C 10 km+ 3.000 ft 240° 240° 8 kt METAR EHGR 190100Z AUTO 24008KT 200V280 9999 -SHRA +DZ FEW009 SCT021 BKN030 07/06 Q1014 WHT NOSIG
02:55
V
7 °C 10 km+ 3.200 ft 240° 240° 9 kt METAR EHGR 190055Z AUTO 24009KT 200V280 9999 DZ FEW009 SCT016 BKN032 07/06 Q1014 WHT NOSIG
02:25
V
7 °C 10 km+ 4.200 ft 230° 230° 7 kt METAR EHGR 190025Z AUTO 23007KT 200V260 9999 DZ FEW021 SCT024 BKN042 07/06 Q1014 WHT NOSIG
02:20
V
7 °C 10 km+ 3.600 ft 240° 240° 7 kt METAR EHGR 190020Z AUTO 24007KT 200V280 9999 -RADZ FEW013 SCT027 BKN036 07/06 Q1015 BLU NOSIG
02:10
M
7 °C 10 km+ 1.600 ft 250° 250° 7 kt METAR EHGR 190010Z AUTO 25007KT 210V280 9999 +DZRA FEW013 BKN016 BKN019 07/06 Q1015 WHT NOSIG
01:55
M
7 °C 6 km 2.600 ft 240° 240° 8 kt METAR EHGR 182355Z AUTO 24008KT 200V270 6000 +DZ SCT021 BKN026 OVC029 07/05 Q1015 WHT NOSIG
01:42
M
7 °C 9 km 2.700 ft 230° 230° 9 - 19 kt METAR EHGR 182342Z AUTO 23009G19KT 200V270 9000 -RADZ SCT023 BKN027 OVC031 07/05 Q1015 WHT NOSIG
01:35
M
7 °C 9 km 2.700 ft 230° 230° 8 kt METAR EHGR 182335Z AUTO 23008KT 200V270 9000 +DZRA FEW023 BKN027 OVC032 07/05 Q1015 BLU NOSIG
01:25
V
7 °C 10 km+ 3.400 ft 230° 230° 7 kt METAR EHGR 182325Z AUTO 23007KT 200V270 9999 -RA FEW024 SCT029 BKN034 07/05 Q1016 BLU NOSIG
00:55
V
8 °C 10 km+ 4.000 ft 220° 220° 8 kt METAR EHGR 182255Z AUTO 22008KT 190V260 9999 -RA FEW029 SCT034 BKN040 08/04 Q1016 RERA REDZ BLU NOSIG
00:39
V
8 °C 10 km+ 4.400 ft 220° 220° 7 kt METAR EHGR 182239Z AUTO 22007KT 190V260 9999 DZRA FEW032 SCT040 BKN044 08/04 Q1017 BLU NOSIG
00:25
V
8 °C 10 km+ 4.200 ft 220° 220° 8 kt METAR EHGR 182225Z AUTO 22008KT 190V260 9999 DZ SCT029 SCT038 BKN042 08/03 Q1017 BLU NOSIG

18 de abril de 2024

Hora Código Tiempo Temp. Visibilidad Cielo nuboso Viento METAR/SPECI
23:55
V
8 °C 10 km+ 4.200 ft 210° 210° 4 kt METAR EHGR 182155Z AUTO 21004KT 170V250 9999 FEW038 BKN042 BKN051 08/03 Q1017 BLU NOSIG
23:40
V
8 °C 10 km+ 4.700 ft 220° 220° 5 kt METAR EHGR 182140Z AUTO 22005KT 9999 SCT042 BKN047 OVC055 08/03 Q1017 BLU NOSIG
23:25
V
8 °C 10 km+ 8.600 ft 220° 220° 4 kt METAR EHGR 182125Z AUTO 22004KT 190V260 9999 FEW060 SCT080 BKN086 08/03 Q1018 BLU NOSIG
22:55
V
8 °C 10 km+ 9.500 ft 230° 230° 4 kt METAR EHGR 182055Z AUTO 23004KT 200V260 9999 FEW081 SCT089 BKN095 08/03 Q1018 BLU NOSIG
22:25
V
7 °C 10 km+ 8.900 ft 220° 220° 4 kt METAR EHGR 182025Z AUTO 22004KT 9999 FEW084 BKN089 OVC095 07/03 Q1018 BLU NOSIG
21:55
V
7 °C 10 km+ 10.000 ft 230° 230° 3 kt METAR EHGR 181955Z AUTO 23003KT 9999 OVC100 07/03 Q1019 BLU NOSIG
21:25
V
8 °C 10 km+ 11.000 ft 240° 240° 4 kt METAR EHGR 181925Z AUTO 24004KT 9999 OVC110 08/03 Q1019 BLU NOSIG
20:55
V
8 °C 10 km+ 12.000 ft 260° 260° 5 kt METAR EHGR 181855Z AUTO 26005KT 210V290 9999 OVC120 08/02 Q1019 BLU NOSIG
20:25
V
8 °C 10 km+ 12.000 ft 260° 260° 4 kt METAR EHGR 181825Z AUTO 26004KT 9999 OVC120 08/03 Q1019 BLU NOSIG
19:55
V
9 °C 10 km+ 13.000 ft 270° 270° 8 kt METAR EHGR 181755Z AUTO 27008KT 9999 FEW043 OVC130 09/03 Q1019 BLU NOSIG
19:25
V
9 °C 10 km+ 4.200 ft 280° 280° 9 kt METAR EHGR 181725Z AUTO 28009KT 250V310 9999 SCT029 SCT033 BKN042 09/03 Q1020 BLU NOSIG
18:55
V
10 °C 10 km+ 5.300 ft 280° 280° 11 kt METAR EHGR 181655Z AUTO 28011KT 240V310 9999 SCT049 BKN053 OVC140 10/03 Q1020 BLU NOSIG
18:43
V
10 °C 10 km+ 14.000 ft 270° 270° 10 kt METAR EHGR 181643Z AUTO 27010KT 240V320 9999 OVC140 10/03 Q1020 BLU NOSIG
18:25
V
10 °C 10 km+ 14.000 ft 280° 280° 12 kt METAR EHGR 181625Z AUTO 28012KT 250V330 9999 FEW037 OVC140 10/02 Q1020 BLU
17:55
V
11 °C 10 km+ 16.000 ft 280° 280° 13 kt METAR EHGR 181555Z AUTO 28013KT 250V320 9999 OVC160 11/03 Q1020 BLU
17:25
V
11 °C 10 km+ 19.000 ft 280° 280° 12 kt METAR EHGR 181525Z AUTO 28012KT 250V320 9999 OVC190 11/03 Q1020 BLU
16:55
V
11 °C 10 km+ 5.400 ft 300° 300° 13 kt METAR EHGR 181455Z AUTO 30013KT 250V330 9999 SCT049 BKN054 BKN060 11/02 Q1020 BLU
16:31
V
11 °C 10 km+ 4.600 ft 320° 320° 11 kt METAR EHGR 181431Z AUTO 32011KT 280V350 9999 SCT039 BKN046 OVC051 11/03 Q1020 BLU
16:25
V
11 °C 10 km+ 4.300 ft 310° 310° 12 kt METAR EHGR 181425Z AUTO 31012KT 270V330 9999 SCT038 BKN043 OVC048 11/03 Q1020 BLU NOSIG
15:55
V
11 °C 10 km+ 5.400 ft 300° 300° 11 kt METAR EHGR 181355Z AUTO 30011KT 260V320 9999 SCT049 BKN054 11/02 Q1020 BLU NOSIG
15:25
V
12 °C 10 km+ 22.000 ft 280° 280° 7 kt METAR EHGR 181325Z AUTO 28007KT 230V300 9999 FEW060 OVC220 12/02 Q1020 BLU NOSIG
14:55
V
12 °C 10 km+ 4.100 ft 270° 270° 8 kt METAR EHGR 181255Z AUTO 27008KT 230V320 9999 SCT034 BKN041 BKN058 12/04 Q1020 BLU NOSIG
14:25
V
10 °C 10 km+ 5.200 ft 290° 290° 10 kt METAR EHGR 181225Z AUTO 29010KT 250V330 9999 SCT046 BKN052 OVC061 10/03 Q1020 BLU NOSIG
13:55
V
10 °C 10 km+ 3.200 ft 290° 290° 11 kt METAR EHGR 181155Z AUTO 29011KT 240V350 9999 OVC032 10/04 Q1020 BLU NOSIG
13:25
V
11 °C 10 km+ 4.900 ft 340° 340° 5 kt METAR EHGR 181125Z AUTO 34005KT 260V360 9999 FEW037 BKN049 BKN053 11/03 Q1020 BLU NOSIG
12:55
V
10 °C 10 km+ 4.800 ft 310° 310° 9 kt METAR EHGR 181055Z AUTO 31009KT 250V340 9999 SCT043 BKN048 BKN053 10/03 Q1020 BLU NOSIG
12:25
V
10 °C 10 km+ 5.400 ft 320° 320° 9 kt METAR EHGR 181025Z AUTO 32009KT 270V010 9999 BKN054 10/05 Q1020 BLU NOSIG
11:55
M
10 °C 10 km+ 3.000 ft 330° 330° 8 kt METAR EHGR 180955Z AUTO 33008KT 280V050 9999 BKN030 BKN035 BKN041 10/03 Q1020 BLU NOSIG
11:25
V
9 °C 10 km+ 3.800 ft 330° 330° 8 kt METAR EHGR 180925Z AUTO 33008KT 280V050 9999 FEW029 BKN038 09/03 Q1020 BLU NOSIG
10:55
V
10 °C 10 km+ - 350° 350° 7 kt METAR EHGR 180855Z AUTO 35007KT 270V020 9999 FEW027 SCT031 10/04 Q1020 BLU NOSIG
10:39
V
9 °C 10 km+ - 330° 330° 8 kt METAR EHGR 180839Z AUTO 33008KT 290V040 9999 FEW024 SCT028 09/03 Q1020 BLU NOSIG
10:31
V
9 °C 10 km+ - 340° 340° 8 kt METAR EHGR 180831Z AUTO 34008KT 270V040 9999 SCT024 SCT029 09/03 Q1020 WHT NOSIG
10:25
V
9 °C 10 km+ - 340° 340° 7 kt METAR EHGR 180825Z AUTO 34007KT 270V360 9999 NCD 09/03 Q1020 BLU NOSIG
10:13
V
9 °C 10 km+ - 340° 340° 7 kt METAR EHGR 180813Z AUTO 34007KT 270V030 9999 FEW023 09/03 Q1020 BLU NOSIG
10:00
V
9 °C 10 km+ - 340° 340° 6 kt METAR EHGR 180800Z AUTO 34006KT 310V060 9999 FEW020 SCT024 09/04 Q1019 WHT NOSIG
09:55
V
9 °C 10 km+ - 350° 350° 6 kt METAR EHGR 180755Z AUTO 35006KT 310V060 9999 FEW020 09/03 Q1019 BLU NOSIG
09:25
V
8 °C 10 km+ - 320° 320° 5 kt METAR EHGR 180725Z AUTO 32005KT 260V030 9999 NCD 08/04 Q1019 BLU NOSIG
08:55
V
7 °C 10 km+ - 320° 320° 3 kt METAR EHGR 180655Z AUTO 32003KT 280V360 9999 NCD 07/05 Q1019 BLU NOSIG
08:35
V
6 °C 10 km+ - 300° 300° 4 kt METAR EHGR 180635Z AUTO 30004KT 280V360 9999 NCD 06/04 Q1019 BLU NOSIG
08:25
V
5 °C 10 km+ - 290° 290° 3 kt METAR EHGR 180625Z AUTO 29003KT 280V340 9999 NCD 05/04 Q1019 BLU NOSIG
08:14
V
5 °C 9 km - 290° 290° 4 kt METAR EHGR 180614Z AUTO 29004KT 280V340 9000 BR NCD 05/04 Q1019 BLU
08:03
M
4 °C 6 km - 310° 310° 3 kt METAR EHGR 180603Z AUTO 31003KT 280V350 6000 BR NCD 04/04 Q1018 WHT
07:55
V
4 °C 10 km+ - 330° 330° 4 kt METAR EHGR 180555Z AUTO 33004KT 260V050 9999 NCD 04/03 Q1018 BLU
07:37
I
2 °C 4,2 km - 330° 330° 3 kt METAR EHGR 180537Z AUTO 33003KT 280V020 4200 BR NCD 02/02 Q1018 GRN
07:33
I
2 °C 3,2 km - 320° 320° 3 kt METAR EHGR 180533Z AUTO 32003KT 280V360 3200 BR NCD 02/02 Q1018 YLO
07:15
M
3 °C 6 km - Var Var 2 kt METAR EHGR 180515Z AUTO VRB02KT 6000 BR NCD 03/02 Q1018 WHT
07:25
M
3 °C 7 km - Var Var 2 kt METAR EHGR 180525Z AUTO VRB02KT 7000 BR NCD 03/02 Q1018 WHT
06:55
V
3 °C 8 km - 340° 340° 4 kt METAR EHGR 180455Z AUTO 34004KT 290V040 8000 BR NCD 03/02 Q1017 BLU
06:25
V
3 °C 10 km+ - 350° 350° 3 kt METAR EHGR 180425Z AUTO 35003KT 290V020 9999 NCD 03/02 Q1017 BLU
05:55
V
3 °C 10 km+ - 330° 330° 4 kt METAR EHGR 180355Z AUTO 33004KT 290V360 9999 FEW057 03/02 Q1017 BLU
05:25
V
4 °C 10 km+ 5.100 ft 350° 350° 4 kt METAR EHGR 180325Z AUTO 35004KT 300V060 9999 OVC051 04/03 Q1016 BLU
04:55
V
4 °C 10 km+ 5.200 ft 350° 350° 4 kt METAR EHGR 180255Z AUTO 35004KT 300V020 9999 SCT048 OVC052 04/03 Q1016 BLU
04:25
V
4 °C 10 km+ 3.800 ft 340° 340° 4 kt METAR EHGR 180225Z AUTO 34004KT 270V030 9999 BKN038 OVC043 04/03 Q1016 BLU
03:55
V
4 °C 10 km+ 3.100 ft 340° 340° 4 kt METAR EHGR 180155Z AUTO 34004KT 290V030 9999 SCT027 BKN031 BKN035 04/03 Q1015 BLU
03:25
V
3 °C 10 km+ 3.600 ft 340° 340° 4 kt METAR EHGR 180125Z AUTO 34004KT 280V040 9999 BKN036 OVC040 03/02 Q1015 BLU
02:55
V
2 °C 10 km+ 4.100 ft Var Var 2 kt METAR EHGR 180055Z AUTO VRB02KT 9999 BKN041 OVC045 02/01 Q1015 BLU
02:25
M
1 °C 6 km 4.200 ft 270° 270° 2 kt METAR EHGR 180025Z AUTO 27002KT 6000 BR BKN042 OVC047 01/01 Q1015 WHT
01:55
V
2 °C 10 km+ 15.000 ft Var Var 2 kt METAR EHGR 172355Z AUTO VRB02KT 9999 OVC150 02/02 Q1015 BLU
01:25
M
1 °C 10 km+ 2.900 ft 270° 270° 2 kt METAR EHGR 172325Z AUTO 27002KT 9999 BKN029 BKN073 01/01 Q1014 BLU
00:55
M
2 °C 10 km+ 2.500 ft 300° 300° 4 kt METAR EHGR 172255Z AUTO 30004KT 9999 FEW020 BKN025 BKN029 02/01 Q1014 BLU
00:25
V
1 °C 10 km+ - Var Var 2 kt METAR EHGR 172225Z AUTO VRB02KT 9999 FEW035 01/01 Q1014 BLU

17 de abril de 2024

Hora Código Tiempo Temp. Visibilidad Cielo nuboso Viento METAR/SPECI
23:55
V
2 °C 10 km+ - 300° 300° 4 kt METAR EHGR 172155Z AUTO 30004KT 9999 NCD 02/01 Q1013 BLU
23:25
V
1 °C 10 km+ - 290° 290° 3 kt METAR EHGR 172125Z AUTO 29003KT 9999 NCD 01/00 Q1013 BLU TEMPO SCT020
22:55
V
3 °C 10 km+ - 290° 290° 3 kt METAR EHGR 172055Z AUTO 29003KT 9999 FEW150 03/02 Q1013 BLU TEMPO SCT020
22:25
V
2 °C 10 km+ - 310° 310° 4 kt METAR EHGR 172025Z AUTO 31004KT 260V350 9999 FEW044 02/01 Q1013 BLU TEMPO SCT020
21:55
V
3 °C 10 km+ 18.000 ft 300° 300° 4 kt METAR EHGR 171955Z AUTO 30004KT 9999 BKN180 03/02 Q1013 BLU TEMPO SCT020
21:25
V
3 °C 10 km+ 17.000 ft 310° 310° 5 kt METAR EHGR 171925Z AUTO 31005KT 260V320 9999 BKN170 03/01 Q1012 BLU TEMPO VRB10G20KT 4000 -SHRAGS FEW015 SCT018 SCT020CB
20:55
M
6 °C 10 km+ 2.500 ft 310° 310° 5 kt METAR EHGR 171855Z AUTO 31005KT 310V030 9999 SCT019 BKN025 BKN028 06/03 Q1012 WHT TEMPO VRB10G20KT 4000 -SHRAGS FEW015 SCT018 SCT020CB
20:25
M
6 °C 10 km+ 2.300 ft 030° 030° 4 kt METAR EHGR 171825Z AUTO 03004KT 330V120 9999 FEW017 BKN023 OVC027 06/03 Q1012 WHT TEMPO VRB10G20KT 4000 -SHRAGS FEW015 SCT018 SCT020CB
19:55
V
6 °C 10 km+ 13.000 ft 290° 290° 5 kt METAR EHGR 171755Z AUTO 29005KT 9999 SCT043 BKN130 06/03 Q1012 BLU TEMPO VRB10G20KT 4000 -SHRAGS FEW015 SCT018 SCT020CB
19:25
V
7 °C 10 km+ 13.000 ft 300° 300° 6 kt METAR EHGR 171725Z AUTO 30006KT 250V340 9999 SCT036 SCT041 OVC130 07/03 Q1012 BLU TEMPO VRB10G20KT 4000 -SHRAGS FEW015 SCT018 SCT020CB
18:55
V
6 °C 10 km+ 5.300 ft 300° 300° 8 kt METAR EHGR 171655Z AUTO 30008KT 9999 FEW047 BKN053 BKN061 06/03 Q1011 BLU TEMPO VRB10G20KT 4000 -SHRAGS FEW015 SCT018 SCT020CB
18:25
V
7 °C 10 km+ 14.000 ft 310° 310° 9 kt METAR EHGR 171625Z AUTO 31009KT 270V340 9999 FEW021 SCT025 OVC140 07/04 Q1011 BLU
17:55
V
7 °C 10 km+ 14.000 ft 300° 300° 11 kt METAR EHGR 171555Z AUTO 30011KT 260V330 9999 BKN140 07/03 Q1011 BLU
17:25
M
5 °C 10 km+ 2.100 ft 280° 280° 9 kt METAR EHGR 171525Z AUTO 28009KT 9999 SHRA FEW015CB SCT018 BKN021 OVC025 05/03 Q1011 REDZ WHT
16:55
M
8 °C 10 km+ 2.200 ft 360° 360° 9 kt METAR EHGR 171455Z AUTO 36009KT 290V050 9999 -RADZ FEW011 FEW017CB BKN022 BKN025 08/04 Q1011 WHT
16:32
V
8 °C 10 km+ 10.000 ft 350° 350° 7 kt METAR EHGR 171432Z AUTO 35007KT 320V060 9999 FEW021 SCT056 OVC100 08/03 Q1011 BLU
16:25
V
8 °C 10 km+ 5.700 ft 360° 360° 8 kt METAR EHGR 171425Z AUTO 36008KT 290V040 9999 FEW019 SCT051 BKN057 08/04 Q1011 BLU TEMPO 35015G32KT 4000 SHRA FEW015 SCT018CB BKN020
16:01
V
7 °C 10 km+ 7.600 ft 340° 340° 7 kt METAR EHGR 171401Z AUTO 34007KT 270V050 9999 FEW012 BKN076 OVC082 07/04 Q1011 BLU TEMPO 35015G32KT 4000 SHRA FEW015 SCT018CB BKN020
15:55
V
7 °C 10 km+ 7.500 ft 350° 350° 8 kt METAR EHGR 171355Z AUTO 35008KT 270V030 9999 FEW011 SCT015 BKN075 07/04 Q1012 WHT TEMPO 35015G32KT 4000 SHRA FEW015 SCT018CB BKN020
15:25
V
7 °C 10 km+ 6.900 ft 340° 340° 4 kt METAR EHGR 171325Z AUTO 34004KT 280V060 9999 SCT056 SCT061 BKN069 07/04 Q1012 BLU TEMPO 35015G32KT 4000 SHRA FEW015 SCT018CB BKN020
15:08
M
5 °C 10 km+ 1.600 ft 310° 310° 6 kt METAR EHGR 171308Z AUTO 31006KT 240V030 9999 -SHRA FEW012 BKN016 OVC020 05/04 Q1012 WHT TEMPO 35015G32KT 4000 SHRA FEW015 SCT018CB BKN020
14:59
M
5 °C 10 km+ 1.600 ft 300° 300° 5 kt METAR EHGR 171259Z AUTO 30005KT 260V320 9999 -RA FEW013 BKN016 BKN031 05/04 Q1012 WHT TEMPO 35015G32KT 4000 SHRA FEW015 SCT018CB BKN020
14:29
M
6 °C 10 km+ 2.800 ft 300° 300° 18 kt METAR EHGR 171229Z AUTO 30018KT 240V360 9999 RA SCT025 BKN028 OVC033 06/02 Q1011 BLU TEMPO 35015G32KT 4000 SHRA FEW015 SCT018CB BKN020
14:32
M
5 °C 6 km 2.900 ft 310° 310° 15 kt METAR EHGR 171232Z AUTO 31015KT 270V360 6000 -SHRA SCT026 BKN029 OVC033 05/02 Q1012 WHT TEMPO 35015G32KT 4000 SHRA FEW015 SCT018CB BKN020
14:25
M
7 °C 10 km+ 3.000 ft 290° 290° 15 kt METAR EHGR 171225Z AUTO 29015KT 240V340 9999 -RA FEW019CB BKN030 OVC036 07/02 Q1011 RETS BLU TEMPO 35015G32KT 4000 SHRA FEW015 SCT018CB BKN020
14:12
M
9 °C 10 km+ 2.800 ft 270° 270° 8 kt METAR EHGR 171212Z AUTO 27008KT 200V350 9999 FEW025CB BKN028 BKN033 OVC038 09/03 Q1011 BLU TEMPO 35015G32KT 4000 SHRA FEW015 SCT018CB BKN020
13:56
V
10 °C 10 km+ 4.600 ft 260° 260° 8 kt METAR EHGR 171156Z AUTO 26008KT 220V330 9999 TS FEW025 FEW026CB SCT030 BKN046 10/03 Q1011 BLU TEMPO 35015G32KT 4000 SHRA FEW015 SCT018CB BKN020
13:27
M
9 °C 10 km+ 2.800 ft 310° 310° 6 kt METAR EHGR 171127Z AUTO 31006KT 300V030 9999 SCT023 BKN028 BKN033 09/03 Q1011 WHT TEMPO 35015G32KT 4000 SHRA FEW015 SCT018CB BKN020
13:25
M
9 °C 10 km+ 2.300 ft 300° 300° 5 kt METAR EHGR 171125Z AUTO 30005KT 280V050 9999 BKN023 BKN031 BKN041 09/03 Q1011 WHT TEMPO 01015G32KT 4000 SHRA TSRA FEW015 SCT018CB BKN020
13:20
V
9 °C 10 km+ 9.700 ft 300° 300° 6 kt METAR EHGR 171120Z AUTO 30006KT 280V050 9999 SCT023 SCT028 BKN097 09/04 Q1011 WHT TEMPO 01015G32KT 4000 SHRA TSRA FEW015 SCT018CB BKN020
12:56
V
8 °C 10 km+ 5.200 ft 270° 270° 5 kt METAR EHGR 171056Z AUTO 27005KT 260V340 9999 SCT026 SCT030 BKN052 08/03 Q1011 BLU TEMPO 01015G32KT 4000 SHRA TSRA FEW015 SCT018CB BKN020
12:55
M
9 °C 10 km+ 2.700 ft 280° 280° 6 kt METAR EHGR 171055Z AUTO 28006KT 250V340 9999 SCT023 BKN027 BKN038 09/03 Q1011 WHT TEMPO 01015G32KT 4000 SHRA TSRA FEW015 SCT018CB BKN020
12:38
M
9 °C 10 km+ 2.800 ft 300° 300° 5 kt METAR EHGR 171038Z AUTO 30005KT 200V320 9999 SCT024 BKN028 BKN033 09/03 Q1012 WHT TEMPO 01015G32KT 4000 SHRA TSRA FEW015 SCT018CB BKN020
12:25
V
9 °C 10 km+ 15.000 ft 350° 350° 4 kt METAR EHGR 171025Z AUTO 35004KT 9999 FEW020 OVC150 09/04 Q1012 BLU TEMPO 01015G32KT 4000 SHRA TSRA FEW015 SCT018CB BKN020
11:55
V
7 °C 10 km+ 16.000 ft 080° 080° 2 kt METAR EHGR 170955Z AUTO 08002KT 9999 BKN160 07/04 Q1012 BLU TEMPO 01015G32KT 4000 SHRA TSRA FEW015 SCT018CB BKN020
11:25
V
6 °C 10 km+ 10.000 ft 040° 040° 4 kt METAR EHGR 170925Z AUTO 04004KT 340V080 9999 FEW015CB OVC100 06/03 Q1012 BLU TEMPO 01015G32KT 4000 SHRA TSRA FEW015 SCT018CB BKN020
10:55
M
5 °C 10 km+ 2.900 ft 010° 010° 6 kt METAR EHGR 170855Z AUTO 01006KT 300V040 9999 -RA FEW015CB BKN029 BKN033 05/03 Q1012 RETSRA BLU TEMPO 01015G32KT 4000 SHRA TSRA FEW015 SCT018CB BKN020
10:44
M
4 °C 10 km+ 2.500 ft 330° 330° 8 kt METAR EHGR 170844Z AUTO 33008KT 280V060 9999 TSRA SCT015CB BKN025 OVC030 04/03 Q1013 WHT TEMPO 4000 SHRA TSRA FEW015 SCT018CB BKN020
10:30
M
4 °C 9 km 2.500 ft 320° 320° 11 kt METAR EHGR 170830Z AUTO 32011KT 270V360 9000 -SHRA SCT015CB SCT022 BKN025 04/03 Q1013 WHT TEMPO 4000 SHRA TSRA FEW015 SCT018CB BKN020
10:29
I
4 °C 3,8 km 2.400 ft 310° 310° 14 kt METAR EHGR 170829Z AUTO 31014KT 270V350 3800 SHRA SCT015CB SCT021 BKN024 04/02 Q1012 GRN TEMPO 4000 SHRA TSRA FEW015 SCT018CB BKN020
10:25
M
4 °C 6 km 2.700 ft 310° 310° 18 - 35 kt METAR EHGR 170825Z AUTO 31018G35KT 270V350 6000 -SHRA FEW015CB SCT023 BKN027 04/02 Q1012 RERA WHT TEMPO 4000 SHRA TSRA FEW015 SCT018CB BKN020
10:16
M
4 °C 6 km 2.800 ft 300° 300° 24 - 35 kt METAR EHGR 170816Z AUTO 30024G35KT 270V350 6000 +SHRA FEW015CB SCT023 BKN028 04/01 Q1012 WHT TEMPO 4000 SHRA TSRA FEW015 SCT018CB BKN020
10:15
V
7 °C 10 km+ 6.200 ft 310° 310° 10 - 33 kt METAR EHGR 170815Z AUTO 31010G33KT 270V350 9999 RA FEW015CB SCT028 BKN062 07/03 Q1012 BLU TEMPO 4000 SHRA TSRA FEW015 SCT018CB BKN020
10:04
V
8 °C 10 km+ 6.900 ft 310° 310° 6 kt METAR EHGR 170804Z AUTO 31006KT 260V340 9999 FEW017CB BKN069 BKN076 08/04 Q1012 BLU TEMPO 4000 SHRA FEW015CB SCT018 BKN020
09:55
V
8 °C 10 km+ 4.700 ft 310° 310° 6 kt METAR EHGR 170755Z AUTO 31006KT 260V350 9999 BKN047 BKN051 BKN120 08/04 Q1012 BLU NOSIG
09:25
V
8 °C 10 km+ 10.000 ft 290° 290° 6 kt METAR EHGR 170725Z AUTO 29006KT 250V330 9999 OVC100 08/05 Q1012 BLU NOSIG
08:55
V
7 °C 10 km+ 14.000 ft 290° 290° 5 kt METAR EHGR 170655Z AUTO 29005KT 250V310 9999 SCT034 SCT049 OVC140 07/05 Q1012 BLU NOSIG
08:30
V
6 °C 10 km+ - 260° 260° 3 kt METAR EHGR 170630Z AUTO 26003KT 240V300 9999 NCD 06/05 Q1012 BLU NOSIG
08:25
V
6 °C 10 km+ - 260° 260° 4 kt METAR EHGR 170625Z AUTO 26004KT 9999 NCD 06/05 Q1012 BLU
08:09
V
6 °C 10 km+ 3.100 ft 260° 260° 4 kt METAR EHGR 170609Z AUTO 26004KT 9999 BKN031 06/05 Q1012 BLU
07:55
V
5 °C 10 km+ 3.800 ft 270° 270° 5 kt METAR EHGR 170555Z AUTO 27005KT 230V320 9999 -DZ FEW024 SCT029 BKN038 05/04 Q1012 REDZ BLU
Cambiar esta información